Hauptseite
METAR-TAF:

METAR-TAF

Flughäfen :

Dübendorf, Schweiz

Militärflugplatz Dübendorf

Breite: 47-23-55N, Länge: 8-38-53E, Höhe: 448 m

Beobachtung

Neuester Wetterbericht von vor 45 Minuten, um 00:50 UTC
Wind 12 kt aus Ost, Böen bis zu 23 kt, variierte zwischen Nordost und Ost/Südost
Temperatur -3°C
Luftfeuchtigkeit 63%
Luftdruck 1016 hPa
Sichtweite 10 km oder mehr
Geschlossene Wolkendecke in der Höhe von 2800 ft

METAR: LSMD 250050Z AUTO 09012G23KT 040V120 9999NDV OVC028 M03/M09 Q1016 RMK

Zeit: 02:35 (01:35 UTC)


TAF: fehlend

Wetterbeobachtungen und Prognosen von mehr als 4000 Flughäfen (METAR und TAF Bericht).

Die verfügbaren Stationen werden durch gelbe und rote Markierungen auf der Karte dargestellt.

Führen Sie die Maus auf sie, um den Namen der Station zu sehen.

Darauf klicken, um die Beobachtung von Wetterbeobachtungen und Prognosen zu sehen.

Um die Karte zu ändern : klicken Sie auf den grünen Tasten mit einem schwarzen Kreuz Zum Vergrößern, auf den grünen Button mit einem Gedankenstrich zu verkleinern, oder auf die grünen Pfeile für benachbarte Karten.


METAR-TAF: